Santomera, Spain
Current Conditions -  °F | °C
As of 6:00 PM on Thursday 23 Oct 2014 (Local Time) from LERI Reporting Station
Clear Clear  
Wind Chill: 82°   Ceiling: Unl
Heat Index: 82°   Visibility: 6mi
Dew Point: 28°   Wind: 0mph
Humidity: 14%   Direction: NA
Pressure: 30.06"   Gusts: NA
Location:  38.06°N, 1.05°W
Report Text: LERI 231600Z 00000KT CAVOK 28/M02 Q1018 NOSIG
Loading
Personal Weather Stations






























Interactive Weather Map
Tropical Storm Tracking
New forecast layout! Learn more

10-Day Weather Forecast

Advertisements
Track Severe Weather on mobile